createdAt,value
2022-07-26T00:01:23.112Z,101936.03
2022-07-26T00:03:55.927Z,101939.34
2022-07-26T00:06:25.632Z,101948.22
2022-07-26T00:08:54.070Z,101941.78
2022-07-26T00:11:23.023Z,101937.94
2022-07-26T00:13:51.239Z,101944.47
2022-07-26T00:16:19.436Z,101941.59
2022-07-26T00:18:47.968Z,101947.41
2022-07-26T00:21:17.608Z,101944.94
2022-07-26T00:23:45.918Z,101942.47
2022-07-26T00:26:14.220Z,101940.78
2022-07-26T00:28:42.676Z,101941.59
2022-07-26T00:31:12.211Z,101945.41
2022-07-26T00:33:40.859Z,101947.59
2022-07-26T00:36:09.714Z,101948.78
2022-07-26T00:38:39.601Z,101951.56
2022-07-26T00:41:09.355Z,101946.94
2022-07-26T00:43:37.705Z,101947.78
2022-07-26T00:46:06.270Z,101946.84
2022-07-26T00:48:34.532Z,101948.69
2022-07-26T00:51:02.833Z,101945.81
2022-07-26T00:53:31.380Z,101943.69
2022-07-26T00:56:00.979Z,101942.88
2022-07-26T00:58:29.159Z,101951.06
2022-07-26T01:00:57.433Z,101959.78
2022-07-26T01:03:29.256Z,101950.31
2022-07-26T01:06:05.094Z,101957.66
2022-07-26T01:08:33.384Z,101954.72
2022-07-26T01:11:02.977Z,101951.09
2022-07-26T01:13:35.043Z,101953.94
2022-07-26T01:16:04.072Z,101954.56
2022-07-26T01:18:32.305Z,101964.75
2022-07-26T01:21:09.075Z,101964.41
2022-07-26T01:23:44.905Z,101973.03
2022-07-26T01:26:13.874Z,101972.03
2022-07-26T01:28:44.973Z,101971.13
2022-07-26T01:31:13.496Z,101978.94
2022-07-26T01:33:41.683Z,101987.56
2022-07-26T01:36:12.528Z,101977.75
2022-07-26T01:38:41.128Z,101973.50
2022-07-26T01:41:11.240Z,101980.19
2022-07-26T01:43:39.801Z,101982.69
2022-07-26T01:46:10.267Z,101973.34
2022-07-26T01:48:38.676Z,101981.31
2022-07-26T01:51:07.035Z,101988.94
2022-07-26T01:53:35.634Z,101993.91
2022-07-26T01:56:03.822Z,101987.56
2022-07-26T01:58:33.551Z,101985.94
2022-07-26T02:01:01.683Z,101982.16
2022-07-26T02:03:29.846Z,101985.34
2022-07-26T02:05:58.065Z,101984.59
2022-07-26T02:08:26.253Z,101983.44
2022-07-26T02:11:04.244Z,101985.97
2022-07-26T02:13:36.463Z,101979.19
2022-07-26T02:16:05.864Z,101973.84
2022-07-26T02:18:34.411Z,101981.53
2022-07-26T02:21:03.616Z,101977.88
2022-07-26T02:23:32.005Z,101983.19
2022-07-26T02:26:00.634Z,101982.19
2022-07-26T02:28:29.378Z,101984.66
2022-07-26T02:30:59.027Z,101989.03
2022-07-26T02:33:27.265Z,101987.84
2022-07-26T02:35:55.609Z,101979.41
2022-07-26T02:38:25.151Z,101979.56
2022-07-26T02:40:53.885Z,101982.59
2022-07-26T02:43:22.184Z,101976.25
2022-07-26T02:46:03.723Z,101978.94
2022-07-26T02:48:33.500Z,101973.59
2022-07-26T02:51:01.735Z,101972.09
2022-07-26T02:53:29.958Z,101969.00
2022-07-26T02:55:58.142Z,101971.47
2022-07-26T02:58:27.107Z,101978.09
2022-07-26T03:00:55.585Z,101978.09
2022-07-26T03:03:23.892Z,101972.94
2022-07-26T03:05:53.495Z,101973.59
2022-07-26T03:08:21.969Z,101974.31
2022-07-26T03:10:50.086Z,101975.47
2022-07-26T03:13:18.498Z,101975.66
2022-07-26T03:15:46.918Z,101988.97
2022-07-26T03:18:15.321Z,101978.47
2022-07-26T03:20:43.520Z,101987.47
2022-07-26T03:23:13.187Z,101984.81
2022-07-26T03:25:41.510Z,101983.34
2022-07-26T03:28:09.797Z,101980.69
2022-07-26T03:30:38.020Z,101976.19
2022-07-26T03:33:06.919Z,101986.00
2022-07-26T03:35:36.710Z,101974.06
2022-07-26T03:38:05.237Z,101976.88
2022-07-26T03:40:35.194Z,101969.91
2022-07-26T03:43:03.759Z,101976.41
2022-07-26T03:45:32.005Z,101982.72
2022-07-26T03:48:00.328Z,101980.06
2022-07-26T03:50:28.516Z,101974.72
2022-07-26T03:52:56.767Z,101984.53
2022-07-26T03:55:42.355Z,101981.88
2022-07-26T03:58:11.901Z,101974.41
2022-07-26T04:00:40.169Z,101979.13
2022-07-26T04:03:08.386Z,101977.47
2022-07-26T04:05:36.680Z,101971.31
2022-07-26T04:08:05.815Z,101971.97
2022-07-26T04:10:34.228Z,101979.13
2022-07-26T04:13:02.414Z,101974.44
2022-07-26T04:15:32.083Z,101981.09
2022-07-26T04:18:00.318Z,101982.25
2022-07-26T04:20:28.622Z,101981.88
2022-07-26T04:22:56.818Z,101978.41
2022-07-26T04:25:25.354Z,101984.72
2022-07-26T04:27:53.721Z,101984.53
2022-07-26T04:30:21.922Z,101981.75
2022-07-26T04:32:51.659Z,101993.69
2022-07-26T04:35:19.955Z,101997.31
2022-07-26T04:37:48.689Z,101998.66
2022-07-26T04:40:21.470Z,101996.00
2022-07-26T04:42:50.516Z,102004.69
2022-07-26T04:45:19.225Z,102002.03
2022-07-26T04:47:51.381Z,101998.72
2022-07-26T04:50:20.536Z,102002.75
2022-07-26T04:52:49.104Z,102000.59
2022-07-26T04:55:18.072Z,102000.78
2022-07-26T04:57:47.581Z,101999.28
2022-07-26T05:00:22.938Z,101999.63
2022-07-26T05:02:55.769Z,101998.78
2022-07-26T05:05:25.080Z,102004.09
2022-07-26T05:07:55.094Z,101998.63
2022-07-26T05:10:24.619Z,102007.78
2022-07-26T05:12:52.804Z,102012.47
2022-07-26T05:15:21.709Z,102010.81
2022-07-26T05:17:50.882Z,102015.47
2022-07-26T05:20:20.454Z,102003.16
2022-07-26T05:22:48.664Z,102005.84
2022-07-26T05:25:16.808Z,102010.31
2022-07-26T05:27:45.399Z,102010.81
2022-07-26T05:30:14.075Z,101999.19
2022-07-26T05:32:42.394Z,102008.63
2022-07-26T05:35:11.142Z,102018.75
2022-07-26T05:37:40.992Z,102019.44
2022-07-26T05:40:10.430Z,102023.09
2022-07-26T05:42:38.652Z,102017.97
2022-07-26T05:45:07.990Z,102020.94
2022-07-26T05:47:36.117Z,102026.28
2022-07-26T05:50:04.852Z,102020.63
2022-07-26T05:52:33.050Z,102025.56
2022-07-26T05:55:02.585Z,102032.22
2022-07-26T05:57:30.926Z,102023.91
2022-07-26T05:59:59.666Z,102027.53
2022-07-26T06:02:28.274Z,102033.72
2022-07-26T06:04:56.545Z,102031.06
2022-07-26T06:07:24.833Z,102036.50
2022-07-26T06:09:52.988Z,102030.34
2022-07-26T06:12:22.564Z,102032.50
2022-07-26T06:14:50.789Z,102035.16
2022-07-26T06:17:19.371Z,102044.78
2022-07-26T06:19:48.309Z,102036.63
2022-07-26T06:22:16.758Z,102042.31
2022-07-26T06:24:45.053Z,102041.94
2022-07-26T06:27:13.204Z,102046.28
2022-07-26T06:29:42.775Z,102052.25
2022-07-26T06:32:11.075Z,102051.91
2022-07-26T06:34:39.334Z,102049.91
2022-07-26T06:37:07.551Z,102056.88
2022-07-26T06:39:35.706Z,102061.34
2022-07-26T06:42:04.017Z,102063.38
2022-07-26T06:44:32.171Z,102068.69
2022-07-26T06:47:02.169Z,102070.34
2022-07-26T06:49:30.498Z,102075.16
2022-07-26T06:51:58.860Z,102071.47
2022-07-26T06:54:27.025Z,102074.75
2022-07-26T06:56:55.196Z,102068.78
2022-07-26T06:59:23.396Z,102073.06
2022-07-26T07:01:59.524Z,102079.00
2022-07-26T07:04:30.811Z,102075.34
2022-07-26T07:07:05.143Z,102081.34
2022-07-26T07:09:34.992Z,102089.97
2022-07-26T07:12:09.934Z,102094.94
2022-07-26T07:14:39.204Z,102097.94
2022-07-26T07:17:11.594Z,102109.25
2022-07-26T07:19:42.848Z,102106.94
2022-07-26T07:22:12.516Z,102105.94
2022-07-26T07:24:41.166Z,102112.28
2022-07-26T07:27:10.810Z,102108.47
2022-07-26T07:29:41.346Z,102113.78
2022-07-26T07:32:18.405Z,102113.91
2022-07-26T07:34:48.912Z,102120.03
2022-07-26T07:37:17.483Z,102118.31
2022-07-26T07:39:48.760Z,102116.91
2022-07-26T07:42:19.348Z,102106.13
2022-07-26T07:44:48.072Z,102108.22
2022-07-26T07:47:16.405Z,102109.47
2022-07-26T07:49:44.823Z,102112.44
2022-07-26T07:52:14.445Z,102113.72
2022-07-26T07:54:43.496Z,102129.72
2022-07-26T07:57:11.954Z,102118.59
2022-07-26T07:59:42.858Z,102121.53
2022-07-26T08:02:12.941Z,102119.34
2022-07-26T08:04:41.271Z,102114.47
2022-07-26T08:07:09.725Z,102122.59
2022-07-26T08:09:42.839Z,102128.69
2022-07-26T08:12:12.487Z,102128.44
2022-07-26T08:14:41.453Z,102126.97
2022-07-26T08:17:09.957Z,102125.53
2022-07-26T08:19:41.860Z,102134.75
2022-07-26T08:22:11.034Z,102137.50
2022-07-26T08:24:41.430Z,102144.41
2022-07-26T08:27:09.656Z,102141.44
2022-07-26T08:29:37.986Z,102147.06
2022-07-26T08:32:07.531Z,102146.50
2022-07-26T08:34:35.984Z,102141.34
2022-07-26T08:37:17.176Z,102145.66
2022-07-26T08:39:48.853Z,102150.59
2022-07-26T08:42:22.881Z,102163.66
2022-07-26T08:44:52.081Z,102155.31
2022-07-26T08:47:35.455Z,102159.28
2022-07-26T08:50:09.750Z,102169.88
2022-07-26T08:52:40.924Z,102162.75
2022-07-26T08:55:11.688Z,102170.91
2022-07-26T08:57:39.853Z,102175.31
2022-07-26T09:00:20.192Z,102174.94
2022-07-26T09:02:49.384Z,102173.28
2022-07-26T09:05:20.996Z,102170.59
2022-07-26T09:07:49.394Z,102182.28
2022-07-26T09:10:19.096Z,102175.56
2022-07-26T09:12:47.489Z,102172.44
2022-07-26T09:15:23.084Z,102166.66
2022-07-26T09:17:54.258Z,102165.75
2022-07-26T09:20:27.839Z,102189.94
2022-07-26T09:23:03.295Z,102189.09
2022-07-26T09:25:35.826Z,102186.78
2022-07-26T09:28:05.266Z,102183.72
2022-07-26T09:30:34.024Z,102180.22
2022-07-26T09:33:05.220Z,102176.53
2022-07-26T09:35:52.335Z,102183.34
2022-07-26T09:38:21.013Z,102185.75
2022-07-26T09:40:51.761Z,102187.88
2022-07-26T09:43:24.065Z,102190.00
2022-07-26T09:46:06.333Z,102189.19
2022-07-26T09:49:07.055Z,102187.09
2022-07-26T09:51:42.751Z,102190.13
2022-07-26T09:54:12.807Z,102204.94
2022-07-26T09:57:00.006Z,102201.53
2022-07-26T09:59:29.689Z,102206.56
2022-07-26T10:01:59.967Z,102199.63
2022-07-26T10:04:28.566Z,102200.81
2022-07-26T10:06:58.280Z,102202.13
2022-07-26T10:09:27.290Z,102194.41
2022-07-26T10:12:01.074Z,102203.78
2022-07-26T10:14:40.378Z,102203.63
2022-07-26T10:17:42.786Z,102207.38
2022-07-26T10:20:19.339Z,102212.44
2022-07-26T10:22:53.198Z,102213.13
2022-07-26T10:25:48.090Z,102207.50
2022-07-26T10:28:33.540Z,102208.28
2022-07-26T10:31:34.862Z,102202.63
2022-07-26T10:34:04.274Z,102208.31
2022-07-26T10:36:35.718Z,102211.56
2022-07-26T10:39:14.446Z,102210.56
2022-07-26T10:41:45.737Z,102212.59
2022-07-26T10:44:17.562Z,102218.31
2022-07-26T10:47:11.448Z,102221.44
2022-07-26T10:49:41.079Z,102219.78
2022-07-26T10:52:12.273Z,102219.66
2022-07-26T10:55:13.589Z,102221.28
2022-07-26T10:57:43.720Z,102221.53
2022-07-26T11:00:21.152Z,102220.78
2022-07-26T11:02:52.897Z,102217.38
2022-07-26T11:05:23.162Z,102226.94
2022-07-26T11:08:05.406Z,102230.84
2022-07-26T11:10:35.775Z,102232.34
2022-07-26T11:13:06.925Z,102240.56
2022-07-26T11:15:38.172Z,102233.00
2022-07-26T11:18:27.956Z,102228.06
2022-07-26T11:20:58.089Z,102240.72
2022-07-26T11:23:35.273Z,102230.69
2022-07-26T11:26:09.910Z,102241.78
2022-07-26T11:28:52.981Z,102245.88
2022-07-26T11:31:49.585Z,102239.44
2022-07-26T11:34:19.313Z,102240.50
2022-07-26T11:36:48.448Z,102236.63
2022-07-26T11:39:22.020Z,102242.81
2022-07-26T11:41:51.153Z,102251.16
2022-07-26T11:44:21.461Z,102249.88
2022-07-26T11:46:52.361Z,102243.38
2022-07-26T11:49:23.109Z,102234.19
2022-07-26T11:52:01.146Z,102237.22
2022-07-26T11:54:31.346Z,102248.56
2022-07-26T11:57:00.715Z,102250.81
2022-07-26T11:59:31.373Z,102243.63
2022-07-26T12:02:02.379Z,102246.88
2022-07-26T12:04:33.205Z,102248.72
2022-07-26T12:07:04.536Z,102247.44
2022-07-26T12:09:35.115Z,102245.94
2022-07-26T12:12:04.928Z,102240.94
2022-07-26T12:14:35.144Z,102242.22
2022-07-26T12:17:14.923Z,102240.38
2022-07-26T12:19:44.676Z,102248.84
2022-07-26T12:22:15.101Z,102237.78
2022-07-26T12:24:49.211Z,102243.63
2022-07-26T12:27:20.540Z,102237.84
2022-07-26T12:29:51.172Z,102245.25
2022-07-26T12:32:22.391Z,102238.69
2022-07-26T12:34:59.248Z,102239.09
2022-07-26T12:37:39.463Z,102243.19
2022-07-26T12:40:11.449Z,102241.34
2022-07-26T12:42:41.845Z,102233.31
2022-07-26T12:45:12.647Z,102233.72
2022-07-26T12:47:44.749Z,102244.19
2022-07-26T12:50:15.515Z,102233.72
2022-07-26T12:52:43.935Z,102239.28
2022-07-26T12:55:14.998Z,102233.09
2022-07-26T12:57:46.130Z,102244.00
2022-07-26T13:00:17.669Z,102231.31
2022-07-26T13:02:47.507Z,102236.31
2022-07-26T13:05:16.743Z,102235.13
2022-07-26T13:07:45.126Z,102232.09
2022-07-26T13:10:32.600Z,102227.47
2022-07-26T13:13:01.682Z,102233.28
2022-07-26T13:15:37.425Z,102232.09
2022-07-26T13:18:09.110Z,102229.66
2022-07-26T13:20:38.432Z,102228.69
2022-07-26T13:23:11.245Z,102232.44
2022-07-26T13:25:40.547Z,102231.03
2022-07-26T13:28:10.243Z,102230.59
2022-07-26T13:30:43.114Z,102233.50
2022-07-26T13:33:13.013Z,102227.69
2022-07-26T13:35:42.828Z,102229.31
2022-07-26T13:38:11.645Z,102224.31
2022-07-26T13:40:39.855Z,102233.16
2022-07-26T13:43:08.477Z,102237.66
2022-07-26T13:45:36.773Z,102229.19
2022-07-26T13:48:05.483Z,102232.25
2022-07-26T13:50:35.294Z,102235.34
2022-07-26T13:53:03.867Z,102231.19
2022-07-26T13:55:32.101Z,102232.03
2022-07-26T13:58:00.390Z,102235.97
2022-07-26T14:00:29.962Z,102231.19
2022-07-26T14:02:59.869Z,102233.66
2022-07-26T14:05:29.372Z,102228.38
2022-07-26T14:07:59.034Z,102225.47
2022-07-26T14:10:27.346Z,102232.91
2022-07-26T14:12:55.632Z,102236.19
2022-07-26T14:15:23.989Z,102239.03
2022-07-26T14:17:52.973Z,102238.63
2022-07-26T14:20:21.558Z,102237.81
2022-07-26T14:22:53.641Z,102231.22
2022-07-26T14:25:24.531Z,102242.00
2022-07-26T14:27:53.000Z,102232.47
2022-07-26T14:30:22.255Z,102244.22
2022-07-26T14:32:51.768Z,102237.81
2022-07-26T14:35:20.014Z,102241.91
2022-07-26T14:37:48.620Z,102236.88
2022-07-26T14:40:18.260Z,102233.38
2022-07-26T14:42:48.148Z,102238.16
2022-07-26T14:45:16.808Z,102232.66
2022-07-26T14:47:45.894Z,102233.28
2022-07-26T14:50:15.759Z,102232.69
2022-07-26T14:52:46.225Z,102240.28
2022-07-26T14:55:15.502Z,102236.31
2022-07-26T14:57:44.278Z,102230.50
2022-07-26T15:00:16.143Z,102234.41
2022-07-26T15:02:46.806Z,102240.72
2022-07-26T15:05:16.265Z,102243.41
2022-07-26T15:07:45.202Z,102235.75
2022-07-26T15:10:15.393Z,102230.41
2022-07-26T15:12:44.812Z,102233.06
2022-07-26T15:15:14.528Z,102231.28
2022-07-26T15:17:42.766Z,102236.13
2022-07-26T15:20:11.277Z,102231.28
2022-07-26T15:22:39.811Z,102230.69
2022-07-26T15:25:09.044Z,102235.44
2022-07-26T15:27:37.177Z,102229.66
2022-07-26T15:30:10.220Z,102227.19
2022-07-26T15:32:43.382Z,102234.78
2022-07-26T15:35:14.079Z,102231.06
2022-07-26T15:37:44.093Z,102235.38
2022-07-26T15:40:13.443Z,102233.06
2022-07-26T15:42:44.280Z,102231.53
2022-07-26T15:45:14.805Z,102236.00
2022-07-26T15:47:57.370Z,102233.50
2022-07-26T15:50:27.655Z,102233.88
2022-07-26T15:52:55.933Z,102230.75
2022-07-26T15:55:24.210Z,102216.31
2022-07-26T15:57:53.621Z,102209.09
2022-07-26T16:00:21.866Z,102205.97
2022-07-26T16:02:51.734Z,102206.53
2022-07-26T16:05:20.031Z,102196.13
2022-07-26T16:07:48.471Z,102196.84
2022-07-26T16:10:17.661Z,102189.44
2022-07-26T16:12:45.888Z,102196.38
2022-07-26T16:15:14.153Z,102193.91
2022-07-26T16:17:42.441Z,102198.66
2022-07-26T16:20:12.370Z,102205.59
2022-07-26T16:22:41.995Z,102207.44
2022-07-26T16:25:13.744Z,102209.22
2022-07-26T16:27:43.268Z,102199.81
2022-07-26T16:30:13.001Z,102202.94
2022-07-26T16:32:41.351Z,102199.81
2022-07-26T16:35:11.841Z,102208.38
2022-07-26T16:37:41.614Z,102210.25
2022-07-26T16:40:11.725Z,102204.78
2022-07-26T16:42:39.959Z,102194.28
2022-07-26T16:45:10.071Z,102196.09
2022-07-26T16:47:38.368Z,102199.44
2022-07-26T16:50:07.862Z,102189.09
2022-07-26T16:52:37.929Z,102185.75
2022-07-26T16:55:10.922Z,102178.91
2022-07-26T16:57:39.712Z,102184.53
2022-07-26T17:00:11.077Z,102175.78
2022-07-26T17:02:40.086Z,102169.91
2022-07-26T17:05:09.661Z,102171.34
2022-07-26T17:07:39.382Z,102169.25
2022-07-26T17:10:09.688Z,102162.78
2022-07-26T17:12:39.006Z,102157.00
2022-07-26T17:15:09.962Z,102155.72
2022-07-26T17:17:38.278Z,102162.41
2022-07-26T17:20:07.869Z,102160.75
2022-07-26T17:22:36.219Z,102160.47
2022-07-26T17:25:07.372Z,102152.19
2022-07-26T17:27:36.358Z,102153.59
2022-07-26T17:30:07.067Z,102156.53
2022-07-26T17:32:36.212Z,102150.78
2022-07-26T17:35:04.876Z,102148.13
2022-07-26T17:37:35.149Z,102144.50
2022-07-26T17:40:08.098Z,102139.22
2022-07-26T17:42:36.711Z,102135.94
2022-07-26T17:45:05.396Z,102139.69
2022-07-26T17:47:35.157Z,102141.91
2022-07-26T17:52:55.128Z,102128.03
2022-07-26T17:55:27.224Z,102127.56
2022-07-26T17:57:55.592Z,102126.50
2022-07-26T18:00:28.691Z,102121.53
2022-07-26T18:02:58.122Z,102132.88
2022-07-26T18:05:33.971Z,102136.16
2022-07-26T18:08:04.315Z,102130.44
2022-07-26T18:10:33.924Z,102138.09
2022-07-26T18:13:02.061Z,102145.28
2022-07-26T18:15:30.314Z,102133.63
2022-07-26T18:17:58.467Z,102139.16
2022-07-26T18:20:26.756Z,102140.09
2022-07-26T18:22:55.595Z,102141.13
2022-07-26T18:25:24.005Z,102137.63
2022-07-26T18:27:54.081Z,102133.75
2022-07-26T18:30:22.609Z,102123.91
2022-07-26T18:32:50.870Z,102135.16
2022-07-26T18:35:19.145Z,102136.22
2022-07-26T18:37:47.808Z,102133.66
2022-07-26T18:40:16.077Z,102133.59
2022-07-26T18:42:44.268Z,102134.34
2022-07-26T18:45:13.935Z,102141.34
2022-07-26T18:47:42.952Z,102141.16
2022-07-26T18:50:12.312Z,102142.81
2022-07-26T18:52:45.646Z,102142.16
2022-07-26T18:55:15.058Z,102141.97
2022-07-26T18:57:45.343Z,102140.97
2022-07-26T19:00:18.252Z,102140.34
2022-07-26T19:02:48.144Z,102141.72
2022-07-26T19:05:17.458Z,102139.53
2022-07-26T19:07:45.967Z,102128.00
2022-07-26T19:10:14.509Z,102131.31
2022-07-26T19:12:43.844Z,102133.53
2022-07-26T19:15:12.788Z,102139.25
2022-07-26T19:17:42.603Z,102136.84
2022-07-26T19:20:12.471Z,102136.94
2022-07-26T19:22:41.222Z,102141.44
2022-07-26T19:25:10.918Z,102139.16
2022-07-26T19:27:39.565Z,102144.88
2022-07-26T19:30:10.105Z,102142.56
2022-07-26T19:32:38.298Z,102143.94
2022-07-26T19:35:10.624Z,102144.75
2022-07-26T19:37:38.868Z,102143.94
2022-07-26T19:40:08.446Z,102144.28
2022-07-26T19:42:36.532Z,102141.19
2022-07-26T19:45:05.304Z,102144.41
2022-07-26T19:47:35.823Z,102141.06
2022-07-26T19:50:05.952Z,102147.97
2022-07-26T19:52:35.755Z,102151.00
2022-07-26T19:55:04.224Z,102144.94
2022-07-26T19:57:32.570Z,102146.94
2022-07-26T20:00:02.723Z,102143.66
2022-07-26T20:02:31.170Z,102142.34
2022-07-26T20:05:00.620Z,102141.03
2022-07-26T20:07:28.901Z,102141.41
2022-07-26T20:09:58.525Z,102143.63
2022-07-26T20:12:27.062Z,102142.94
2022-07-26T20:14:55.209Z,102149.47
2022-07-26T20:17:23.980Z,102151.31
2022-07-26T20:19:52.593Z,102158.44
2022-07-26T20:22:20.969Z,102156.78
2022-07-26T20:24:54.964Z,102163.78
2022-07-26T20:27:24.741Z,102160.94
2022-07-26T20:29:58.779Z,102166.44
2022-07-26T20:32:29.223Z,102169.78
2022-07-26T20:34:57.860Z,102175.75
2022-07-26T20:37:26.063Z,102170.91
2022-07-26T20:39:54.262Z,102172.56
2022-07-26T20:42:24.524Z,102174.06
2022-07-26T20:44:53.895Z,102180.22
2022-07-26T20:47:23.021Z,102186.56
2022-07-26T20:49:51.383Z,102186.38
2022-07-26T20:52:19.710Z,102188.41
2022-07-26T20:54:48.090Z,102186.72
2022-07-26T20:57:16.374Z,102180.41
2022-07-26T20:59:45.937Z,102184.72
2022-07-26T21:02:14.233Z,102190.06
2022-07-26T21:04:42.420Z,102182.22
2022-07-26T21:07:10.637Z,102184.06
2022-07-26T21:09:38.927Z,102189.03
2022-07-26T21:12:07.657Z,102189.88
2022-07-26T21:14:35.976Z,102201.34
2022-07-26T21:17:10.987Z,102197.88
2022-07-26T21:19:40.231Z,102200.34
2022-07-26T21:22:08.579Z,102198.53
2022-07-26T21:24:37.214Z,102197.88
2022-07-26T21:27:06.994Z,102198.88
2022-07-26T21:29:39.258Z,102199.69
2022-07-26T21:32:09.395Z,102197.03
2022-07-26T21:34:39.777Z,102200.53
2022-07-26T21:37:08.165Z,102197.66
2022-07-26T21:39:36.445Z,102193.19
2022-07-26T21:42:05.180Z,102193.19
2022-07-26T21:44:33.491Z,102195.66
2022-07-26T21:47:01.734Z,102201.00
2022-07-26T21:49:31.601Z,102196.69
2022-07-26T21:51:59.982Z,102199.50
2022-07-26T21:54:28.270Z,102195.00
2022-07-26T21:56:56.476Z,102191.34
2022-07-26T21:59:25.015Z,102186.56
2022-07-26T22:01:53.297Z,102187.38
2022-07-26T22:04:22.501Z,102187.53
2022-07-26T22:06:52.094Z,102183.06
2022-07-26T22:09:20.345Z,102176.88
2022-07-26T22:11:48.564Z,102175.63
2022-07-26T22:14:17.477Z,102172.13
2022-07-26T22:16:47.662Z,102179.41
2022-07-26T22:19:16.046Z,102173.47
2022-07-26T22:21:44.358Z,102170.78
2022-07-26T22:24:14.685Z,102174.44
2022-07-26T22:26:43.174Z,102172.78
2022-07-26T22:29:11.804Z,102173.81
2022-07-26T22:31:40.292Z,102180.69
2022-07-26T22:34:08.638Z,102176.72
2022-07-26T22:36:39.007Z,102171.72
2022-07-26T22:39:13.590Z,102183.59
2022-07-26T22:42:12.683Z,102177.97
2022-07-26T22:44:30.813Z,102172.34
2022-07-26T22:46:59.022Z,102169.19
2022-07-26T22:49:27.635Z,102170.56
2022-07-26T22:51:55.915Z,102182.75
2022-07-26T22:54:25.537Z,102179.44
2022-07-26T22:56:53.946Z,102174.63
2022-07-26T22:59:22.687Z,102183.34
2022-07-26T23:01:51.358Z,102184.16
2022-07-26T23:04:19.634Z,102179.19
2022-07-26T23:06:49.506Z,102179.53
2022-07-26T23:09:17.835Z,102176.56
2022-07-26T23:11:47.740Z,102172.59
2022-07-26T23:14:16.075Z,102171.09
2022-07-26T23:16:44.246Z,102168.81
2022-07-26T23:19:13.058Z,102164.16
2022-07-26T23:21:41.584Z,102149.38
2022-07-26T23:24:09.904Z,102148.91
2022-07-26T23:26:38.409Z,102146.56
2022-07-26T23:29:08.679Z,102147.94
2022-07-26T23:31:38.386Z,102145.63
2022-07-26T23:34:06.807Z,102146.13
2022-07-26T23:36:35.251Z,102152.44
2022-07-26T23:39:03.465Z,102140.16
2022-07-26T23:41:31.748Z,102142.31
2022-07-26T23:44:00.015Z,102139.00
2022-07-26T23:46:29.782Z,102139.16
2022-07-26T23:48:59.054Z,102142.84
2022-07-26T23:51:27.380Z,102138.53
2022-07-26T23:53:55.661Z,102140.69
2022-07-26T23:56:24.216Z,102139.03
2022-07-26T23:58:52.626Z,102142.69
